Archival Weather

Snohomish County (Paine Fld)

Everett, Washington (KPAE)

Report from: Thursday, November 2, 2023 6:41 AM PDT
Current time: Monday, June 17, 2024 12:45 AM PDT

Current weather – Weather history – Daily summaries
Weather forecast

Present weatherHeavy rain, mist
Temperature11.7°C (53.1°F)
Dew point10.6°C (51.1°F)
Winds 11 kts (5.7 m/s, 12.7 mph) South-Southeast (150°)
Visibility3 mi. (4.8 km)
Clouds Scattered clouds 500 ft. (152 m)
Ceiling: Broken clouds 1,900 ft. (579 m)
Overcast 3,600 ft. (1,097 m)
Altimeter29.71 in.Hg (1006 mB)
Precipitiation0.05 in. (1 mm)
Precip. events Rain ended 12:57 PM
Rain began 1:15 PM
Relative humidity93 %
Density altitude30 ft. (9 m)
Remarks Fully automated report
Automated weather observing station with precipitation discriminator
Flight conditions Marginal Visual Meteorological Conditions
Raw dataKPAE 021341Z AUTO 15011KT 3SM +RA BR SCT005 BKN019 OVC036 12/11 A2971 RMK AO2 RAE1257B15 P0005 T01170106
An error has occurred. This application may no longer respond until reloaded. Reload 🗙